Time;durP1;ratioP1;P1;durP2;ratioP2;P2;SDS_P1;SDS_P2;PMS_P1;PMS_P2;Temp;Humidity;BMP_temperature;BMP_pressure;BME280_temperature;BME280_humidity;BME280_pressure;Samples;Min_cycle;Max_cycle;Signal;HPM_P1;HPM_P2
2022/10/03 00:02:04;;;;;;;8.95;4.70;;;;;;;6.77;100.00;102565.16;5096366;28;20020;-80
2022/10/03 00:05:00;;;;;;;10.55;4.38;;;;;;;6.80;100.00;102573.66;5096013;28;20063;-79
2022/10/03 00:07:45;;;;;;;14.32;4.85;;;;;;;6.63;100.00;102550.03;5096120;28;20031;-82
2022/10/03 00:10:27;;;;;;;10.38;4.25;;;;;;;6.65;100.00;102557.69;5096295;28;20073;-81
2022/10/03 00:13:02;;;;;;;11.27;4.40;;;;;;;6.68;100.00;102579.00;5096085;28;20024;-79
2022/10/03 00:15:34;;;;;;;9.65;3.88;;;;;;;6.63;100.00;102580.84;5096048;28;20475;-79
2022/10/03 00:18:11;;;;;;;11.13;4.55;;;;;;;6.63;100.00;102580.84;5096084;28;20089;-81
2022/10/03 00:21:19;;;;;;;9.57;3.95;;;;;;;6.61;100.00;102577.44;5095984;28;20077;-79
2022/10/03 00:23:59;;;;;;;11.65;5.32;;;;;;;6.37;100.00;102549.66;5013768;28;20045;-80
2022/10/03 00:26:55;;;;;;;9.90;4.53;;;;;;;6.52;100.00;102586.16;5013976;28;20120;-79
2022/10/03 00:29:34;;;;;;;13.43;4.32;;;;;;;6.42;100.00;102584.63;5012739;28;20125;-80
2022/10/03 00:32:08;;;;;;;10.93;4.40;;;;;;;6.45;100.00;102597.41;5013689;28;20064;-81
2022/10/03 00:35:03;;;;;;;9.23;4.15;;;;;;;6.44;100.00;102593.16;5013070;28;20034;-79
2022/10/03 00:37:35;;;;;;;9.27;4.22;;;;;;;6.26;100.00;102576.34;5013447;28;20092;-80
2022/10/03 00:40:24;;;;;;;8.25;4.15;;;;;;;6.37;100.00;102600.97;5013173;28;20026;-80
2022/10/03 00:43:14;;;;;;;12.80;4.35;;;;;;;6.35;100.00;102603.56;5013250;28;20036;-79
2022/10/03 00:46:01;;;;;;;11.57;4.55;;;;;;;6.31;100.00;102601.94;5013256;28;20046;-79
2022/10/03 00:48:47;;;;;;;12.23;5.03;;;;;;;6.28;100.00;102605.38;5013344;28;20034;-80
2022/10/03 00:51:57;;;;;;;8.32;4.28;;;;;;;6.28;100.00;102609.66;5013097;28;20034;-79
2022/10/03 00:54:40;;;;;;;14.75;4.65;;;;;;;6.23;100.00;102602.06;4935908;29;20051;-80
2022/10/03 00:57:16;;;;;;;10.77;4.85;;;;;;;5.66;100.00;102519.19;4935674;29;20099;-80
2022/10/03 01:00:00;;;;;;;9.55;5.15;;;;;;;6.20;100.00;102608.97;4950547;28;20034;-80
2022/10/03 01:02:38;;;;;;;9.75;4.07;;;;;;;6.17;100.00;102612.41;5013201;28;20156;-80
2022/10/03 01:05:40;;;;;;;7.63;4.22;;;;;;;6.15;100.00;102615.88;4996264;28;20105;-82
2022/10/03 01:08:23;;;;;;;9.30;4.28;;;;;;;6.13;100.00;102622.75;5013065;28;20038;-83
2022/10/03 01:11:06;;;;;;;9.38;4.63;;;;;;;5.97;100.00;102601.63;5012981;28;20100;-82
2022/10/03 01:13:48;;;;;;;10.35;4.60;;;;;;;5.77;100.00;102576.25;5010279;28;20026;-81
2022/10/03 01:16:38;;;;;;;10.00;4.25;;;;;;;6.05;100.00;102635.69;5012912;28;20044;-82
2022/10/03 01:19:56;;;;;;;7.38;3.97;;;;;;;6.02;100.00;102628.91;5012565;28;20030;-81
2022/10/03 01:22:28;;;;;;;9.65;4.10;;;;;;;6.00;100.00;102634.94;4916134;29;20136;-81
2022/10/03 01:25:01;;;;;;;10.48;4.45;;;;;;;5.97;100.00;102629.81;4916468;29;20032;-82
2022/10/03 01:30:42;;;;;;;13.55;5.25;;;;;;;5.94;100.00;102640.97;5012789;28;20040;-81
2022/10/03 01:33:36;;;;;;;11.88;4.90;;;;;;;5.84;100.00;102621.44;5012599;28;20030;-80
2022/10/03 01:36:13;;;;;;;11.98;4.50;;;;;;;5.91;100.00;102646.16;4953936;29;20416;-81
2022/10/03 01:39:10;;;;;;;10.30;4.47;;;;;;;5.74;100.00;102620.72;4954140;29;20035;-82
2022/10/03 01:41:50;;;;;;;10.35;4.57;;;;;;;5.88;100.00;102642.75;4860148;29;20045;-81
2022/10/03 01:44:51;;;;;;;8.77;3.83;;;;;;;5.84;100.00;102644.50;4859919;29;20181;-82
2022/10/03 01:47:17;;;;;;;9.20;4.25;;;;;;;5.83;100.00;102641.97;4859481;29;20057;-82
2022/10/03 01:49:52;;;;;;;9.25;4.57;;;;;;;5.71;100.00;102627.63;4859368;29;20113;-80
2022/10/03 01:52:27;;;;;;;10.38;4.88;;;;;;;5.62;100.00;102613.22;4873250;29;20047;-79
2022/10/03 01:55:07;;;;;;;8.90;4.25;;;;;;;5.78;100.00;102644.59;4915752;29;20036;-83
2022/10/03 01:58:00;;;;;;;9.82;4.10;;;;;;;5.79;100.00;102635.19;4915668;29;20039;-82
2022/10/03 02:00:34;;;;;;;10.30;4.57;;;;;;;5.66;100.00;102619.13;4914485;29;20123;-83
2022/10/03 02:03:10;;;;;;;9.00;4.13;;;;;;;5.73;100.00;102641.25;4915439;29;20040;-82
2022/10/03 02:05:53;;;;;;;10.52;4.72;;;;;;;5.71;100.00;102640.44;4915231;29;20039;-81
2022/10/03 02:08:56;;;;;;;10.70;4.47;;;;;;;5.71;100.00;102641.28;4915491;29;20040;-82
2022/10/03 02:11:49;;;;;;;10.90;4.60;;;;;;;5.68;100.00;102646.44;4915380;29;20095;-82
2022/10/03 02:14:33;;;;;;;12.23;4.72;;;;;;;5.67;100.00;102644.75;4989491;28;20046;-82
2022/10/03 02:17:10;;;;;;;11.77;5.15;;;;;;;5.65;100.00;102643.06;4991909;28;20030;-78
2022/10/03 02:19:55;;;;;;;9.00;4.80;;;;;;;5.66;100.00;102647.31;5076756;28;20040;-81
2022/10/03 02:22:41;;;;;;;11.13;5.13;;;;;;;5.53;100.00;102638.97;5092387;28;20032;-82
2022/10/03 02:25:40;;;;;;;9.88;4.57;;;;;;;5.64;100.00;102660.16;5092534;28;20554;-80
2022/10/03 02:28:43;;;;;;;12.00;5.70;;;;;;;5.58;100.00;102644.84;5093683;28;20031;-82
2022/10/03 02:31:55;;;;;;;11.73;4.90;;;;;;;5.59;100.00;102651.66;5093482;28;20032;-81
2022/10/03 02:34:41;;;;;;;10.80;5.10;;;;;;;5.45;100.00;102631.38;5031480;28;20409;-82
2022/10/03 02:37:33;;;;;;;10.43;4.90;;;;;;;5.50;100.00;102633.00;5031045;28;20071;-82
2022/10/03 02:40:26;;;;;;;11.65;4.60;;;;;;;5.55;100.00;102660.28;5031014;28;20537;-82
2022/10/03 02:43:25;;;;;;;9.70;5.03;;;;;;;5.55;100.00;102664.56;5031346;28;20040;-82
2022/10/03 02:46:17;;;;;;;10.80;4.90;;;;;;;5.53;100.00;102654.34;5030807;28;20073;-82
2022/10/03 02:49:18;;;;;;;7.78;4.43;;;;;;;5.51;100.00;102655.22;5031156;28;20081;-82
2022/10/03 02:51:55;;;;;;;9.35;4.40;;;;;;;5.48;100.00;102656.94;4991591;28;20470;-78
2022/10/03 02:54:58;;;;;;;9.95;5.22;;;;;;;5.46;100.00;102653.56;4991619;28;20460;-83
2022/10/03 02:57:48;;;;;;;9.93;4.72;;;;;;;5.43;100.00;102651.03;4991649;28;20375;-84
2022/10/03 03:00:21;;;;;;;10.15;4.65;;;;;;;5.34;100.00;102640.91;4991484;28;20041;-83
2022/10/03 03:03:17;;;;;;;7.90;4.90;;;;;;;5.39;100.00;102646.81;4994246;28;20421;-82
2022/10/03 03:06:14;;;;;;;11.13;4.90;;;;;;;5.37;100.00;102653.66;4995346;28;20085;-82
2022/10/03 03:09:17;;;;;;;11.60;5.13;;;;;;;5.34;100.00;102648.59;4995263;28;20035;-82
2022/10/03 03:12:16;;;;;;;13.63;5.38;;;;;;;5.33;100.00;102652.03;5038161;28;20064;-82
2022/10/03 03:15:24;;;;;;;9.55;5.05;;;;;;;5.31;100.00;102652.88;5054845;28;20512;-82
2022/10/03 03:18:10;;;;;;;9.15;4.82;;;;;;;5.28;100.00;102656.34;5054114;28;20112;-81
2022/10/03 03:20:51;;;;;;;8.15;4.68;;;;;;;5.28;100.00;102663.16;5054635;28;20057;-81
2022/10/03 03:23:51;;;;;;;9.45;4.70;;;;;;;5.26;100.00;102667.47;5054598;28;20492;-82
2022/10/03 03:26:42;;;;;;;10.63;5.32;;;;;;;5.25;100.00;102668.34;5009064;28;20043;-82
2022/10/03 03:29:22;;;;;;;12.63;5.22;;;;;;;5.25;100.00;102663.22;5014971;28;20034;-82
2022/10/03 03:32:13;;;;;;;11.65;5.57;;;;;;;5.18;100.00;102654.75;5014891;28;20088;-83
2022/10/03 03:34:58;;;;;;;13.27;5.60;;;;;;;5.24;100.00;102664.94;5014654;28;20080;-81
2022/10/03 03:37:56;;;;;;;11.52;6.15;;;;;;;5.23;100.00;102662.41;5014457;28;20042;-82
2022/10/03 03:40:31;;;;;;;12.80;5.13;;;;;;;5.11;100.00;102651.44;5014555;28;20037;-82
2022/10/03 03:43:20;;;;;;;12.50;5.90;;;;;;;5.16;100.00;102665.00;5014351;28;20041;-82
2022/10/03 03:46:04;;;;;;;11.15;5.00;;;;;;;4.84;100.00;102613.31;5014286;28;20050;-83
2022/10/03 03:48:47;;;;;;;12.52;5.70;;;;;;;5.12;100.00;102667.63;5014728;28;20025;-83
2022/10/03 03:51:21;;;;;;;8.88;4.82;;;;;;;5.10;100.00;102659.94;5014320;28;20072;-82
2022/10/03 03:54:04;;;;;;;8.35;5.50;;;;;;;5.10;100.00;102667.63;5014286;28;20032;-81
2022/10/03 03:56:47;;;;;;;10.13;5.63;;;;;;;5.09;100.00;102670.22;5014367;28;20049;-82
2022/10/03 04:00:07;;;;;;;10.43;5.45;;;;;;;5.07;100.00;102667.66;5014568;28;20030;-81
2022/10/03 04:03:08;;;;;;;11.82;4.90;;;;;;;5.03;100.00;102657.50;5010283;28;20124;-81
2022/10/03 04:05:50;;;;;;;8.90;5.03;;;;;;;5.05;100.00;102669.41;5053832;28;20033;-82
2022/10/03 04:08:27;;;;;;;9.40;5.35;;;;;;;5.03;100.00;102672.84;5053286;28;20029;-82
2022/10/03 04:11:11;;;;;;;12.43;5.55;;;;;;;4.95;100.00;102661.84;5053699;28;20511;-81
2022/10/03 04:13:36;;;;;;;9.93;5.30;;;;;;;5.01;100.00;102677.13;5053215;28;20035;-81
2022/10/03 04:16:16;;;;;;;10.15;5.25;;;;;;;4.99;100.00;102681.41;5053598;28;20029;-82
2022/10/03 04:19:03;;;;;;;11.85;5.45;;;;;;;4.96;100.00;102679.75;5053672;28;20040;-82
2022/10/03 04:22:23;;;;;;;12.30;5.53;;;;;;;4.98;100.00;102682.28;5037449;28;20465;-80
2022/10/03 04:25:26;;;;;;;11.23;5.70;;;;;;;4.95;100.00;102679.75;4974741;28;20043;-82
2022/10/03 04:28:35;;;;;;;10.68;5.60;;;;;;;4.87;100.00;102680.66;4958661;28;20035;-82
2022/10/03 04:31:24;;;;;;;11.00;5.00;;;;;;;4.90;100.00;102688.31;4879630;29;20045;-82
2022/10/03 04:34:23;;;;;;;10.73;5.35;;;;;;;4.87;100.00;102682.38;4879719;29;20037;-82
2022/10/03 04:36:48;;;;;;;13.30;5.78;;;;;;;4.85;100.00;102681.56;4900259;29;20055;-81
2022/10/03 04:39:20;;;;;;;12.13;5.80;;;;;;;4.85;100.00;102686.69;4916966;29;20036;-80
2022/10/03 04:42:23;;;;;;;11.40;5.65;;;;;;;4.84;100.00;102688.38;4916926;29;20416;-82
2022/10/03 04:44:54;;;;;;;11.50;5.95;;;;;;;4.80;100.00;102686.69;4916807;29;20056;-82
2022/10/03 04:47:27;;;;;;;11.10;5.88;;;;;;;4.83;100.00;102686.69;4917023;29;20043;-81
2022/10/03 04:50:02;;;;;;;11.70;5.80;;;;;;;4.81;100.00;102683.28;4916927;29;20040;-81
2022/10/03 04:52:48;;;;;;;13.80;6.00;;;;;;;4.81;100.00;102688.41;4917529;29;20048;-78
2022/10/03 04:55:38;;;;;;;10.95;5.90;;;;;;;4.80;100.00;102690.97;4916759;29;20567;-79
2022/10/03 04:58:06;;;;;;;12.68;6.07;;;;;;;4.77;100.00;102689.31;4947584;28;20472;-80
2022/10/03 05:00:45;;;;;;;12.52;6.35;;;;;;;4.75;100.00;102685.91;5013025;28;20030;-80
2022/10/03 05:03:32;;;;;;;11.77;5.97;;;;;;;4.76;100.00;102685.03;5013120;28;20030;-79
2022/10/03 05:06:07;;;;;;;11.43;5.97;;;;;;;4.73;100.00;102687.63;5012762;28;20025;-80
2022/10/03 05:08:42;;;;;;;14.15;6.63;;;;;;;4.71;100.00;102688.50;5068208;28;20085;-79
2022/10/03 05:11:13;;;;;;;15.57;6.95;;;;;;;4.71;100.00;102681.66;5094903;28;20073;-79
2022/10/03 05:13:52;;;;;;;11.00;6.50;;;;;;;4.70;100.00;102681.69;5095391;28;20028;-79
2022/10/03 05:16:30;;;;;;;13.05;7.55;;;;;;;4.74;100.00;102691.91;5094715;28;20024;-79
2022/10/03 05:19:08;;;;;;;11.98;6.53;;;;;;;4.68;100.00;102686.81;5094808;28;20036;-80
2022/10/03 05:22:06;;;;;;;8.65;6.00;;;;;;;4.67;100.00;102690.25;5094430;28;20481;-77
2022/10/03 05:24:46;;;;;;;13.30;6.57;;;;;;;4.66;100.00;102692.81;5012269;28;20034;-79
2022/10/03 05:27:18;;;;;;;12.38;6.13;;;;;;;4.66;100.00;102691.09;5011873;28;20164;-81
2022/10/03 05:29:44;;;;;;;14.32;6.68;;;;;;;4.64;100.00;102692.84;4996224;28;20113;-81
2022/10/03 05:32:24;;;;;;;11.38;6.72;;;;;;;4.67;100.00;102697.06;5012321;28;20068;-80
2022/10/03 05:35:14;;;;;;;11.25;6.53;;;;;;;4.65;100.00;102699.66;5012420;28;20103;-80
2022/10/03 05:38:08;;;;;;;10.93;6.13;;;;;;;4.57;100.00;102696.28;5012402;28;20362;-80
2022/10/03 05:40:38;;;;;;;11.32;6.40;;;;;;;4.65;100.00;102711.59;5006923;28;20077;-79
2022/10/03 05:43:34;;;;;;;10.80;6.22;;;;;;;4.66;100.00;102708.19;5012460;28;20029;-81
2022/10/03 05:46:13;;;;;;;12.95;6.53;;;;;;;4.61;100.00;102705.63;5011970;28;20125;-79
2022/10/03 05:48:57;;;;;;;10.85;6.57;;;;;;;4.68;100.00;102716.69;5012293;28;20041;-78
2022/10/03 05:51:38;;;;;;;13.68;7.07;;;;;;;4.71;100.00;102727.72;5012154;28;20037;-80
2022/10/03 05:54:18;;;;;;;14.70;7.55;;;;;;;4.68;100.00;102714.13;5011928;28;20046;-80
2022/10/03 05:57:20;;;;;;;12.18;6.78;;;;;;;4.77;100.00;102729.41;5012050;28;20025;-80
2022/10/03 06:00:01;;;;;;;13.88;7.10;;;;;;;4.82;100.00;102725.97;5041025;28;20044;-80
2022/10/03 06:03:10;;;;;;;12.45;7.68;;;;;;;4.86;100.00;102725.06;5092607;28;20391;-78
2022/10/03 06:05:55;;;;;;;12.20;6.97;;;;;;;4.91;100.00;102732.69;5032006;28;20119;-79
2022/10/03 06:08:38;;;;;;;11.98;7.00;;;;;;;4.95;100.00;102734.38;5031690;28;20030;-81
2022/10/03 06:11:18;;;;;;;11.68;6.68;;;;;;;4.98;100.00;102726.66;5031432;28;20039;-81
2022/10/03 06:13:52;;;;;;;11.05;6.85;;;;;;;5.03;100.00;102729.19;5014516;28;20044;-80
2022/10/03 06:16:39;;;;;;;10.88;6.70;;;;;;;5.09;100.00;102735.06;5031381;28;20037;-79
2022/10/03 06:19:14;;;;;;;10.07;7.30;;;;;;;5.16;100.00;102731.59;5031558;28;20033;-80
2022/10/03 06:22:21;;;;;;;11.65;7.75;;;;;;;5.23;100.00;102746.91;5031490;28;20021;-79
2022/10/03 06:24:52;;;;;;;15.27;8.05;;;;;;;5.30;100.00;102734.00;4952972;28;20271;-78
2022/10/03 06:27:42;;;;;;;15.40;8.23;;;;;;;5.39;100.00;102746.72;4953359;29;20043;-79
2022/10/03 06:30:24;;;;;;;12.07;7.60;;;;;;;5.41;100.00;102741.59;4953130;29;20039;-78
2022/10/03 06:33:11;;;;;;;14.70;7.90;;;;;;;5.54;100.00;102739.75;4953319;29;20034;-78
2022/10/03 06:36:18;;;;;;;12.48;7.25;;;;;;;5.62;100.00;102741.34;4953057;29;20035;-78
2022/10/03 06:39:08;;;;;;;10.95;7.22;;;;;;;5.72;100.00;102742.09;4936982;29;20046;-78
2022/10/03 06:41:53;;;;;;;12.35;8.00;;;;;;;5.84;100.00;102751.34;4967611;28;20033;-78
2022/10/03 06:44:46;;;;;;;12.00;7.82;;;;;;;5.94;100.00;102750.41;5029921;28;20025;-78
2022/10/03 06:47:27;;;;;;;13.52;7.53;;;;;;;6.06;100.00;102746.81;5031142;28;20516;-77
2022/10/03 06:50:17;;;;;;;12.77;7.78;;;;;;;6.16;100.00;102743.25;5031035;28;20096;-75
2022/10/03 06:52:58;;;;;;;16.42;7.57;;;;;;;6.27;100.00;102742.22;5031167;28;20113;-79
2022/10/03 06:55:53;;;;;;;15.32;7.80;;;;;;;6.41;100.00;102746.34;5030808;28;20095;-79
2022/10/03 06:58:46;;;;;;;15.68;8.05;;;;;;;6.52;100.00;102745.28;5030638;28;20025;-79
2022/10/03 07:01:11;;;;;;;14.93;7.63;;;;;;;6.65;100.00;102745.09;5081330;28;20145;-78
2022/10/03 07:04:05;;;;;;;13.85;7.55;;;;;;;6.60;100.00;102714.38;5113682;28;20020;-78
2022/10/03 07:06:32;;;;;;;12.88;8.23;;;;;;;6.88;100.00;102753.25;5113416;28;20031;-78
2022/10/03 07:09:09;;;;;;;12.48;8.77;;;;;;;6.97;100.00;102752.25;5113014;28;20020;-78
2022/10/03 07:11:59;;;;;;;15.50;8.45;;;;;;;7.07;100.00;102757.22;5113440;28;20022;-81
2022/10/03 07:14:42;;;;;;;16.08;8.63;;;;;;;7.13;100.00;102741.69;5113659;28;20027;-91
2022/10/03 07:17:34;;;;;;;13.82;8.80;;;;;;;7.40;100.00;102753.19;5148273;22;20064;-79
2022/10/03 07:20:14;;;;;;;18.27;9.20;;;;;;;7.62;100.00;102752.78;5069981;28;20123;-81
2022/10/03 07:22:58;;;;;;;15.55;9.30;;;;;;;7.82;100.00;102752.38;5072615;28;20013;-81
2022/10/03 07:25:33;;;;;;;16.20;9.18;;;;;;;7.99;100.00;102752.88;5071059;28;20123;-81
2022/10/03 07:28:21;;;;;;;17.33;9.50;;;;;;;8.08;100.00;102755.25;5072711;28;20040;-81
2022/10/03 07:30:57;;;;;;;16.45;8.70;;;;;;;8.13;100.00;102743.13;5072652;28;20067;-81
2022/10/03 07:33:32;;;;;;;15.85;8.93;;;;;;;8.15;100.00;102759.38;5072774;28;20104;-81
2022/10/03 07:39:30;;;;;;;18.10;9.60;;;;;;;8.29;100.00;102762.50;5072749;28;20093;-81
2022/10/03 07:42:26;;;;;;;16.55;9.60;;;;;;;8.15;100.00;102720.75;5072665;28;20025;-81
2022/10/03 07:45:29;;;;;;;22.63;9.95;;;;;;;8.54;100.00;102767.09;5010704;28;20050;-81
2022/10/03 07:48:25;;;;;;;19.08;10.82;;;;;;;8.27;100.00;102715.34;5010820;28;20038;-81
2022/10/03 07:51:16;;;;;;;18.08;9.93;;;;;;;8.77;100.00;102770.00;5014293;28;20125;-81
2022/10/03 07:54:04;;;;;;;16.08;9.75;;;;;;;8.87;100.00;102784.34;5014493;28;20026;-81
2022/10/03 07:56:32;;;;;;;16.80;11.00;;;;;;;9.02;100.00;102779.66;5014087;28;20046;-81
2022/10/03 07:59:19;;;;;;;17.77;10.63;;;;;;;9.17;100.00;102787.88;5014281;28;20036;-81
2022/10/03 08:02:08;;;;;;;19.33;11.20;;;;;;;9.29;100.00;102794.44;5014314;28;20050;-80
2022/10/03 08:04:55;;;;;;;20.30;10.63;;;;;;;9.45;100.00;102797.47;5014154;28;20108;-81
2022/10/03 08:07:35;;;;;;;18.38;10.88;;;;;;;9.60;100.00;102791.03;5013926;28;20069;-81
2022/10/03 08:10:18;;;;;;;17.23;11.48;;;;;;;9.76;100.00;102795.72;5013814;28;20037;-82
2022/10/03 08:13:01;;;;;;;17.95;10.55;;;;;;;9.59;100.00;102745.50;5014083;28;20173;-81
2022/10/03 08:15:48;;;;;;;15.95;9.88;;;;;;;9.88;100.00;102766.16;5013976;28;20445;-81
2022/10/03 08:18:13;;;;;;;16.60;9.40;;;;;;;10.11;100.00;102782.69;5013824;28;20046;-81
2022/10/03 08:20:46;;;;;;;19.58;8.68;;;;;;;10.18;100.00;102779.88;5013727;28;20041;-81
2022/10/03 08:23:40;;;;;;;20.40;10.55;;;;;;;9.98;100.00;102736.59;5075782;28;20039;-81
2022/10/03 08:26:21;;;;;;;21.17;9.85;;;;;;;10.22;100.00;102749.69;5075265;28;20050;-81
2022/10/03 08:29:15;;;;;;;14.38;8.77;;;;;;;10.50;100.00;102775.50;5067693;28;20029;-81
2022/10/03 08:31:59;;;;;;;17.38;9.57;;;;;;;10.54;100.00;102771.94;5075459;28;20495;-81
2022/10/03 08:35:12;;;;;;;15.48;9.70;;;;;;;10.55;100.00;102776.22;5075477;28;20032;-81
2022/10/03 08:37:58;;;;;;;18.60;8.82;;;;;;;10.61;100.00;102779.41;5013619;28;20068;-80
2022/10/03 08:40:43;;;;;;;17.55;9.07;;;;;;;10.37;100.00;102723.38;5013256;28;20498;-81
2022/10/03 08:43:41;;;;;;;19.65;9.25;;;;;;;10.77;100.00;102784.94;5013475;28;20034;-81
2022/10/03 08:46:45;;;;;;;15.98;9.15;;;;;;;10.88;100.00;102794.94;4938918;29;20079;-80
2022/10/03 08:49:21;;;;;;;24.60;9.60;;;;;;;11.11;100.00;102784.69;4938935;29;20035;-81
2022/10/03 08:52:16;;;;;;;15.23;8.95;;;;;;;11.26;100.00;102783.31;4954852;29;20209;-81
2022/10/03 08:54:54;;;;;;;18.88;9.90;;;;;;;11.45;100.00;102791.28;4954948;29;20126;-81
2022/10/03 08:57:51;;;;;;;15.05;7.55;;;;;;;11.58;100.00;102791.66;4954789;29;20451;-82
2022/10/03 09:00:20;;;;;;;14.27;7.13;;;;;;;11.64;100.00;102756.06;4954459;28;20141;-79
2022/10/03 09:02:52;;;;;;;15.85;7.18;;;;;;;12.05;100.00;102789.97;4954654;29;20126;-81
2022/10/03 09:05:24;;;;;;;12.85;5.75;;;;;;;12.10;100.00;102790.66;4954800;29;20491;-81
2022/10/03 09:07:59;;;;;;;11.85;4.90;;;;;;;12.08;100.00;102792.44;4954663;29;20035;-82
2022/10/03 09:10:33;;;;;;;16.38;5.78;;;;;;;12.12;100.00;102791.44;4954802;29;20597;-81
2022/10/03 09:13:11;;;;;;;9.60;4.20;;;;;;;12.29;100.00;102789.03;4956679;28;20050;-81
2022/10/03 09:15:57;;;;;;;12.18;4.82;;;;;;;12.60;100.00;102793.00;4993341;28;20050;-80
2022/10/03 09:18:51;;;;;;;11.38;4.00;;;;;;;12.92;100.00;102789.94;4993317;28;20073;-80
2022/10/03 09:21:49;;;;;;;9.43;4.05;;;;;;;13.09;98.95;102789.25;4982740;28;20583;-80
2022/10/03 09:24:25;;;;;;;10.27;4.43;;;;;;;13.08;99.05;102782.38;5012604;28;20120;-80
2022/10/03 09:26:51;;;;;;;7.25;3.90;;;;;;;13.12;97.76;102780.47;5012439;28;20108;-80
2022/10/03 09:29:28;;;;;;;11.05;3.90;;;;;;;13.11;98.57;102784.81;5012681;28;20109;-82
2022/10/03 09:32:26;;;;;;;10.23;3.38;;;;;;;13.08;98.17;102777.19;5012495;28;20044;-81
2022/10/03 09:35:05;;;;;;;9.95;3.30;;;;;;;13.08;97.45;102774.59;5012513;28;20041;-81
2022/10/03 09:37:40;;;;;;;13.65;2.90;;;;;;;13.15;95.94;102777.75;5012491;28;20049;-81
2022/10/03 09:40:28;;;;;;;13.02;2.50;;;;;;;12.94;95.02;102732.81;5012395;28;20033;-81
2022/10/03 09:43:06;;;;;;;10.02;2.88;;;;;;;13.29;93.94;102777.19;5012285;28;20504;-81
2022/10/03 09:45:49;;;;;;;9.93;2.42;;;;;;;13.27;95.39;102769.47;5012196;28;20064;-80
2022/10/03 09:48:52;;;;;;;9.98;2.35;;;;;;;13.28;94.96;102770.31;5012233;28;20037;-81
2022/10/03 09:51:28;;;;;;;11.48;2.22;;;;;;;13.31;94.02;102770.19;5012332;28;20041;-80
2022/10/03 09:54:15;;;;;;;14.13;2.63;;;;;;;13.35;94.12;102763.94;5012336;28;20105;-81
2022/10/03 09:57:03;;;;;;;9.23;2.40;;;;;;;13.43;93.38;102769.63;5017120;28;20113;-80
2022/10/03 10:00:21;;;;;;;11.10;2.97;;;;;;;13.53;93.66;102767.47;5073871;28;20071;-81
2022/10/03 10:03:20;;;;;;;11.63;3.05;;;;;;;13.46;93.14;102744.38;4965562;28;20109;-81
2022/10/03 10:06:23;;;;;;;12.10;2.78;;;;;;;13.37;93.39;102715.41;4973023;28;20246;-81
2022/10/03 10:09:10;;;;;;;9.73;3.38;;;;;;;13.69;92.42;102758.09;4992288;28;20399;-81
2022/10/03 10:12:10;;;;;;;10.95;3.35;;;;;;;13.75;92.35;102763.00;4991717;28;20033;-81
2022/10/03 10:15:07;;;;;;;7.88;3.33;;;;;;;13.73;92.70;102762.22;4992279;28;20097;-81
2022/10/03 10:17:57;;;;;;;7.82;3.30;;;;;;;13.76;90.56;102762.09;4991652;28;20410;-81
2022/10/03 10:20:47;;;;;;;8.73;3.70;;;;;;;13.84;90.52;102759.16;4992170;28;20042;-81
2022/10/03 10:23:21;;;;;;;12.65;3.80;;;;;;;13.71;90.66;102731.16;4992081;28;20108;-82
2022/10/03 10:25:58;;;;;;;9.75;3.50;;;;;;;14.00;92.41;102758.38;4991795;28;20069;-79
2022/10/03 10:28:34;;;;;;;11.90;3.90;;;;;;;13.99;90.51;102763.66;4991250;28;20030;-78
2022/10/03 10:31:18;;;;;;;9.27;3.13;;;;;;;13.98;90.30;102757.63;4992116;28;20080;-78
2022/10/03 10:34:19;;;;;;;11.15;2.78;;;;;;;14.03;89.32;102758.22;5030810;28;20040;-77
2022/10/03 10:37:10;;;;;;;9.32;3.15;;;;;;;14.13;87.66;102750.84;5073174;28;20032;-79
2022/10/03 10:40:13;;;;;;;11.60;3.47;;;;;;;14.26;88.75;102757.16;5073245;28;20033;-79
2022/10/03 10:42:57;;;;;;;10.43;2.35;;;;;;;14.42;87.12;102759.00;5072844;28;20033;-79
2022/10/03 10:45:38;;;;;;;9.52;2.90;;;;;;;14.50;85.11;102749.97;5073023;28;20028;-81
2022/10/03 10:48:40;;;;;;;8.00;2.13;;;;;;;14.71;85.93;102755.00;5073172;28;20020;-79
2022/10/03 10:51:11;;;;;;;9.73;2.53;;;;;;;14.89;84.08;102760.13;5072901;28;20310;-79
2022/10/03 10:54:14;;;;;;;8.05;2.45;;;;;;;15.05;83.85;102748.97;5073019;28;20055;-79
2022/10/03 10:57:21;;;;;;;10.43;2.10;;;;;;;15.17;83.61;102750.94;5072918;28;20029;-79
2022/10/03 11:00:18;;;;;;;6.80;1.42;;;;;;;15.17;79.55;102756.97;5073296;28;20032;-88
2022/10/03 11:03:21;;;;;;;8.25;2.58;;;;;;;15.20;79.75;102762.00;5073045;28;20460;-84
2022/10/03 11:06:05;;;;;;;6.88;1.88;;;;;;;15.34;80.12;102756.09;5073019;28;20020;-83
2022/10/03 11:09:00;;;;;;;8.63;2.20;;;;;;;15.55;79.90;102751.53;5071572;28;20066;-85
2022/10/03 11:11:47;;;;;;;9.13;2.47;;;;;;;15.67;76.71;102752.66;5011080;28;20040;-85
2022/10/03 11:14:36;;;;;;;10.35;2.15;;;;;;;15.75;76.90;102751.31;5010761;28;20588;-83
2022/10/03 11:17:24;;;;;;;6.80;1.70;;;;;;;15.97;74.46;102737.97;5011214;28;20076;-83
2022/10/03 11:20:14;;;;;;;5.95;1.75;;;;;;;16.13;74.24;102742.34;5011096;28;20030;-84
2022/10/03 11:23:10;;;;;;;8.18;2.05;;;;;;;16.14;73.07;102738.78;5011663;28;20117;-84
2022/10/03 11:25:50;;;;;;;12.23;2.40;;;;;;;16.27;71.74;102738.00;5014969;28;20036;-85
2022/10/03 11:28:33;;;;;;;7.10;2.10;;;;;;;16.44;74.60;102737.06;5014921;28;20034;-84
2022/10/03 11:31:10;;;;;;;9.50;2.42;;;;;;;16.48;73.06;102735.09;5014866;28;20033;-85
2022/10/03 11:33:51;;;;;;;10.00;2.67;;;;;;;16.54;72.05;102738.22;5014766;28;20525;-84
2022/10/03 11:36:42;;;;;;;6.07;1.95;;;;;;;16.63;74.09;102736.84;5014928;28;20065;-78
2022/10/03 11:39:18;;;;;;;8.93;2.20;;;;;;;16.37;73.14;102694.00;5014672;28;20029;-83
2022/10/03 11:41:59;;;;;;;10.20;2.08;;;;;;;16.67;72.54;102734.88;5014708;28;20569;-78
2022/10/03 11:44:28;;;;;;;10.38;2.30;;;;;;;16.64;72.10;102722.88;5014602;28;20492;-86
2022/10/03 11:47:49;;;;;;;6.03;1.77;;;;;;;16.76;73.85;102730.00;5021543;28;20030;-85
2022/10/03 11:50:45;;;;;;;7.45;2.00;;;;;;;16.78;72.29;102735.13;5034385;28;20112;-80
2022/10/03 11:53:24;;;;;;;8.13;1.40;;;;;;;16.84;69.50;102745.22;5034051;28;20041;-84
2022/10/03 11:56:11;;;;;;;6.43;1.63;;;;;;;16.88;69.68;102738.88;5034357;28;20029;-87
2022/10/03 11:59:07;;;;;;;7.15;1.60;;;;;;;17.04;69.45;102733.59;5034618;28;20137;-92
2022/10/03 12:02:13;;;;;;;7.53;1.80;;;;;;;17.20;69.13;102735.16;5034177;28;20576;-87
2022/10/03 12:04:38;;;;;;;9.10;1.60;;;;;;;17.17;66.46;102737.13;5034209;28;20033;-94
2022/10/03 12:10:41;;;;;;;6.32;1.75;;;;;;;16.89;70.63;102735.31;5034262;28;20420;-86
2022/10/03 12:13:40;;;;;;;9.13;1.60;;;;;;;16.73;70.49;102732.78;5034014;28;20041;-87
2022/10/03 12:16:21;;;;;;;8.20;1.67;;;;;;;16.64;68.48;102736.75;5033441;28;20595;-86
2022/10/03 12:18:47;;;;;;;6.68;1.55;;;;;;;16.67;69.80;102730.50;5033866;28;20053;-88
2022/10/03 12:21:16;;;;;;;8.73;2.10;;;;;;;16.66;68.26;102727.97;5034019;28;20397;-81
2022/10/03 12:24:02;;;;;;;8.10;2.03;;;;;;;16.70;69.12;102716.47;5033771;28;20499;-80
2022/10/03 12:26:52;;;;;;;8.40;2.00;;;;;;;16.83;68.30;102717.44;5065583;28;20545;-94
2022/10/03 12:29:20;;;;;;;8.10;1.90;;;;;;;16.63;66.75;102695.09;5076501;28;20418;-93
2022/10/03 12:32:19;;;;;;;11.30;2.08;;;;;;;16.91;68.78;102718.66;5076138;28;20048;-80
2022/10/03 12:34:52;;;;;;;7.40;1.77;;;;;;;16.86;65.84;102702.44;5075489;28;20086;-81
2022/10/03 12:37:29;;;;;;;10.20;1.85;;;;;;;16.96;66.03;102718.38;5076031;28;20035;-81
2022/10/03 12:40:05;;;;;;;7.38;1.60;;;;;;;16.98;65.91;102711.28;5076067;28;20542;-89
2022/10/03 12:42:36;;;;;;;5.75;1.85;;;;;;;16.94;66.70;102712.41;5074501;28;20055;-78
2022/10/03 12:45:01;;;;;;;;;;;;;;;17.02;68.32;102714.56;5057787;28;20380;-78
2022/10/03 12:48:39;;;;;;;7.37;1.80;;;;;;;16.96;67.47;102707.94;5075712;28;19913;-86
2022/10/03 12:51:16;;;;;;;7.28;2.10;;;;;;;16.88;67.57;102710.16;4984054;28;20289;-87
2022/10/03 12:54:15;;;;;;;9.27;1.67;;;;;;;16.87;68.80;102711.09;4993971;28;20169;-93
2022/10/03 12:57:26;;;;;;;6.68;1.55;;;;;;;16.81;67.23;102706.22;4994096;28;20038;-89